createdAt,value
2023-05-10T00:00:10.091Z,100885.03
2023-05-10T00:02:36.811Z,100883.44
2023-05-10T00:05:03.532Z,100878.22
2023-05-10T00:07:30.048Z,100882.81
2023-05-10T00:09:56.500Z,100873.81
2023-05-10T00:12:22.920Z,100871.19
2023-05-10T00:14:49.334Z,100870.94
2023-05-10T00:17:15.864Z,100873.81
2023-05-10T00:19:42.277Z,100872.81
2023-05-10T00:22:08.786Z,100879.38
2023-05-10T00:24:35.504Z,100869.97
2023-05-10T00:27:01.979Z,100872.75
2023-05-10T00:29:29.364Z,100875.53
2023-05-10T00:31:55.896Z,100869.69
2023-05-10T00:34:22.371Z,100869.34
2023-05-10T00:36:48.957Z,100870.56
2023-05-10T00:39:15.430Z,100862.13
2023-05-10T00:41:41.844Z,100877.97
2023-05-10T00:44:08.272Z,100878.31
2023-05-10T00:46:34.885Z,100870.84
2023-05-10T00:49:01.411Z,100878.50
2023-05-10T00:51:27.873Z,100876.69
2023-05-10T00:53:54.733Z,100869.88
2023-05-10T00:56:23.944Z,100870.88
2023-05-10T00:58:50.523Z,100875.00
2023-05-10T01:01:16.980Z,100877.44
2023-05-10T01:03:43.771Z,100877.63
2023-05-10T01:06:10.998Z,100883.63
2023-05-10T01:08:37.740Z,100878.63
2023-05-10T01:11:04.168Z,100881.75
2023-05-10T01:13:40.443Z,100883.91
2023-05-10T01:16:07.668Z,100880.84
2023-05-10T01:18:36.683Z,100881.19
2023-05-10T01:21:11.689Z,100878.06
2023-05-10T01:23:44.225Z,100880.94
2023-05-10T01:26:28.836Z,100883.38
2023-05-10T01:32:07.016Z,100881.75
2023-05-10T01:34:37.037Z,100884.69
2023-05-10T01:37:10.400Z,100879.50
2023-05-10T01:39:49.794Z,100882.09
2023-05-10T01:42:19.066Z,100886.88
2023-05-10T01:44:58.126Z,100886.78
2023-05-10T01:47:27.550Z,100881.94
2023-05-10T01:49:55.978Z,100886.22
2023-05-10T01:52:33.494Z,100873.50
2023-05-10T01:55:04.049Z,100869.91
2023-05-10T01:57:34.115Z,100880.03
2023-05-10T02:00:03.935Z,100878.88
2023-05-10T02:02:30.460Z,100883.25
2023-05-10T02:04:58.166Z,100888.13
2023-05-10T02:07:25.155Z,100884.34
2023-05-10T02:09:52.196Z,100888.13
2023-05-10T02:12:19.150Z,100901.34
2023-05-10T02:14:46.120Z,100898.34
2023-05-10T02:17:13.019Z,100888.75
2023-05-10T02:19:42.140Z,100894.69
2023-05-10T02:22:10.280Z,100894.78
2023-05-10T02:24:37.535Z,100890.75
2023-05-10T02:27:04.850Z,100898.19
2023-05-10T02:29:32.352Z,100889.66
2023-05-10T02:31:59.967Z,100903.22
2023-05-10T02:34:27.233Z,100904.41
2023-05-10T02:36:54.404Z,100898.81
2023-05-10T02:39:22.050Z,100904.56
2023-05-10T02:41:49.854Z,100903.31
2023-05-10T02:44:18.927Z,100903.56
2023-05-10T02:46:46.132Z,100899.97
2023-05-10T02:49:12.655Z,100907.66
2023-05-10T02:51:46.087Z,100910.28
2023-05-10T02:54:16.699Z,100905.06
2023-05-10T02:56:46.171Z,100905.38
2023-05-10T02:59:12.759Z,100917.03
2023-05-10T03:01:39.458Z,100917.81
2023-05-10T03:04:06.111Z,100923.56
2023-05-10T03:06:32.659Z,100922.50
2023-05-10T03:08:59.200Z,100920.41
2023-05-10T03:12:04.663Z,100914.56
2023-05-10T03:14:34.101Z,100924.19
2023-05-10T03:17:16.889Z,100913.22
2023-05-10T03:19:54.535Z,100915.28
2023-05-10T03:22:42.174Z,100917.25
2023-05-10T03:25:09.447Z,100921.91
2023-05-10T03:27:37.630Z,100912.50
2023-05-10T03:30:05.579Z,100901.88
2023-05-10T03:32:33.525Z,100920.22
2023-05-10T03:34:59.919Z,100925.25
2023-05-10T03:37:26.335Z,100930.72
2023-05-10T03:39:52.752Z,100925.50
2023-05-10T03:42:19.234Z,100927.66
2023-05-10T03:44:45.750Z,100930.88
2023-05-10T03:47:12.241Z,100935.00
2023-05-10T03:49:38.657Z,100932.41
2023-05-10T03:52:06.312Z,100934.53
2023-05-10T03:54:33.198Z,100939.28
2023-05-10T03:56:59.654Z,100932.78
2023-05-10T03:59:26.154Z,100933.25
2023-05-10T04:01:52.813Z,100941.22
2023-05-10T04:04:21.732Z,100940.09
2023-05-10T04:06:48.265Z,100934.88
2023-05-10T04:09:14.903Z,100934.75
2023-05-10T04:11:41.371Z,100934.59
2023-05-10T04:14:07.768Z,100936.84
2023-05-10T04:16:34.209Z,100941.94
2023-05-10T04:19:00.981Z,100939.00
2023-05-10T04:21:27.372Z,100943.38
2023-05-10T04:23:53.879Z,100939.28
2023-05-10T04:26:21.162Z,100944.56
2023-05-10T04:28:47.674Z,100950.78
2023-05-10T04:31:14.162Z,100944.75
2023-05-10T04:33:41.512Z,100948.63
2023-05-10T04:36:08.238Z,100941.47
2023-05-10T04:38:35.364Z,100944.63
2023-05-10T04:41:06.533Z,100949.81
2023-05-10T04:43:33.028Z,100946.19
2023-05-10T04:45:59.562Z,100944.28
2023-05-10T04:48:26.036Z,100947.50
2023-05-10T04:50:52.505Z,100943.38
2023-05-10T04:53:18.960Z,100954.41
2023-05-10T04:55:45.335Z,100960.06
2023-05-10T04:58:11.738Z,100956.13
2023-05-10T05:00:38.200Z,100958.94
2023-05-10T05:03:04.755Z,100962.34
2023-05-10T05:05:31.234Z,100958.03
2023-05-10T05:07:57.705Z,100962.44
2023-05-10T05:10:24.158Z,100973.31
2023-05-10T05:12:50.767Z,100969.19
2023-05-10T05:15:17.853Z,100971.97
2023-05-10T05:17:44.734Z,100979.28
2023-05-10T05:20:11.727Z,100983.97
2023-05-10T05:22:38.571Z,100977.94
2023-05-10T05:25:05.577Z,100982.53
2023-05-10T05:27:32.368Z,100988.38
2023-05-10T05:29:58.898Z,100991.78
2023-05-10T05:32:26.182Z,100994.91
2023-05-10T05:34:52.802Z,100992.00
2023-05-10T05:37:20.829Z,100993.28
2023-05-10T05:39:47.554Z,100999.53
2023-05-10T05:42:14.245Z,101007.81
2023-05-10T05:44:40.730Z,101011.00
2023-05-10T05:47:07.511Z,101015.19
2023-05-10T05:49:34.027Z,101017.19
2023-05-10T05:52:04.225Z,101009.19
2023-05-10T05:54:31.708Z,101004.31
2023-05-10T05:57:01.050Z,101013.19
2023-05-10T05:59:28.314Z,101015.44
2023-05-10T06:01:54.741Z,101011.19
2023-05-10T06:04:21.419Z,101019.19
2023-05-10T06:06:47.908Z,101025.84
2023-05-10T06:09:14.358Z,101022.56
2023-05-10T06:11:40.870Z,101023.81
2023-05-10T06:14:08.733Z,101024.09
2023-05-10T06:16:35.769Z,101020.31
2023-05-10T06:19:02.563Z,101028.56
2023-05-10T06:21:29.075Z,101037.31
2023-05-10T06:23:55.608Z,101040.09
2023-05-10T06:26:22.179Z,101038.47
2023-05-10T06:28:48.875Z,101044.31
2023-05-10T06:31:15.429Z,101041.91
2023-05-10T06:33:41.916Z,101045.22
2023-05-10T06:36:08.442Z,101042.25
2023-05-10T06:38:34.991Z,101045.94
2023-05-10T06:41:01.767Z,101042.06
2023-05-10T06:43:29.642Z,101042.06
2023-05-10T06:45:56.204Z,101042.53
2023-05-10T06:48:22.940Z,101044.59
2023-05-10T06:50:49.505Z,101046.03
2023-05-10T06:53:16.350Z,101052.88
2023-05-10T06:55:42.768Z,101051.06
2023-05-10T06:58:09.242Z,101048.38
2023-05-10T07:00:35.845Z,101051.44
2023-05-10T07:03:02.494Z,101054.59
2023-05-10T07:05:29.263Z,101061.84
2023-05-10T07:07:55.815Z,101062.97
2023-05-10T07:10:22.313Z,101057.47
2023-05-10T07:12:48.879Z,101059.06
2023-05-10T07:15:17.092Z,101066.72
2023-05-10T07:17:45.925Z,101065.63
2023-05-10T07:20:13.129Z,101065.72
2023-05-10T07:22:39.577Z,101071.59
2023-05-10T07:25:06.912Z,101070.84
2023-05-10T07:27:33.604Z,101068.72
2023-05-10T07:30:00.028Z,101069.97
2023-05-10T07:32:26.797Z,101072.31
2023-05-10T07:34:53.355Z,101079.59
2023-05-10T07:37:19.890Z,101071.69
2023-05-10T07:39:46.491Z,101081.75
2023-05-10T07:42:12.913Z,101082.53
2023-05-10T07:44:39.317Z,101098.66
2023-05-10T07:47:05.780Z,101094.88
2023-05-10T07:49:32.278Z,101093.53
2023-05-10T07:51:58.788Z,101102.59
2023-05-10T07:54:25.330Z,101099.09
2023-05-10T07:56:51.963Z,101102.31
2023-05-10T07:59:19.002Z,101099.38
2023-05-10T08:01:45.628Z,101096.59
2023-05-10T08:04:12.686Z,101100.16
2023-05-10T08:06:39.904Z,101090.75
2023-05-10T08:09:06.470Z,101107.94
2023-05-10T08:11:34.856Z,101109.97
2023-05-10T08:14:01.558Z,101111.06
2023-05-10T08:16:28.469Z,101125.19
2023-05-10T08:18:56.317Z,101118.72
2023-05-10T08:21:22.975Z,101121.69
2023-05-10T08:23:50.050Z,101123.88
2023-05-10T08:26:16.561Z,101117.84
2023-05-10T08:28:43.058Z,101122.25
2023-05-10T08:31:09.602Z,101129.78
2023-05-10T08:33:36.075Z,101136.34
2023-05-10T08:36:02.509Z,101130.56
2023-05-10T08:38:29.096Z,101135.38
2023-05-10T08:40:59.772Z,101132.09
2023-05-10T08:43:30.894Z,101140.63
2023-05-10T08:45:58.315Z,101146.53
2023-05-10T08:48:26.031Z,101139.75
2023-05-10T08:50:55.955Z,101152.72
2023-05-10T08:53:24.863Z,101153.09
2023-05-10T08:55:51.667Z,101153.38
2023-05-10T08:58:20.698Z,101155.81
2023-05-10T09:00:49.454Z,101153.63
2023-05-10T09:03:16.629Z,101160.56
2023-05-10T09:05:43.246Z,101153.75
2023-05-10T09:08:09.903Z,101166.22
2023-05-10T09:10:36.564Z,101150.72
2023-05-10T09:13:03.314Z,101155.91
2023-05-10T09:15:29.780Z,101150.34
2023-05-10T09:17:56.838Z,101160.63
2023-05-10T09:20:23.524Z,101161.25
2023-05-10T09:22:50.625Z,101164.22
2023-05-10T09:25:18.126Z,101151.25
2023-05-10T09:27:49.239Z,101160.75
2023-05-10T09:30:29.449Z,101165.78
2023-05-10T09:32:57.295Z,101165.06
2023-05-10T09:35:28.821Z,101177.38
2023-05-10T09:37:57.920Z,101174.91
2023-05-10T09:40:25.862Z,101179.34
2023-05-10T09:43:07.837Z,101191.63
2023-05-10T09:45:37.660Z,101181.69
2023-05-10T09:48:05.770Z,101178.97
2023-05-10T09:50:32.329Z,101184.44
2023-05-10T09:53:04.274Z,101190.38
2023-05-10T09:55:40.761Z,101185.41
2023-05-10T09:58:13.399Z,101193.56
2023-05-10T10:00:44.462Z,101192.97
2023-05-10T10:03:20.619Z,101195.03
2023-05-10T10:05:48.362Z,101196.84
2023-05-10T10:08:15.627Z,101190.56
2023-05-10T10:10:42.660Z,101192.63
2023-05-10T10:13:09.252Z,101178.47
2023-05-10T10:15:36.024Z,101192.19
2023-05-10T10:18:04.592Z,101203.91
2023-05-10T10:20:31.374Z,101201.06
2023-05-10T10:22:58.067Z,101210.38
2023-05-10T10:25:24.656Z,101212.75
2023-05-10T10:27:54.147Z,101201.84
2023-05-10T10:30:35.832Z,101206.66
2023-05-10T10:33:27.151Z,101203.75
2023-05-10T10:35:55.788Z,101217.38
2023-05-10T10:38:22.965Z,101209.59
2023-05-10T10:40:57.459Z,101205.44
2023-05-10T10:43:25.618Z,101217.19
2023-05-10T10:46:14.950Z,101214.59
2023-05-10T10:48:43.104Z,101203.75
2023-05-10T10:51:10.844Z,101213.91
2023-05-10T10:53:39.245Z,101214.16
2023-05-10T10:56:14.409Z,101209.72
2023-05-10T10:58:41.264Z,101206.06
2023-05-10T11:01:16.687Z,101212.53
2023-05-10T11:04:01.983Z,101210.06
2023-05-10T11:06:35.196Z,101214.91
2023-05-10T11:09:09.437Z,101213.66
2023-05-10T11:11:37.045Z,101214.72
2023-05-10T11:14:05.209Z,101212.94
2023-05-10T11:16:42.301Z,101224.09
2023-05-10T11:19:11.639Z,101216.44
2023-05-10T11:22:14.613Z,101217.06
2023-05-10T11:24:41.104Z,101219.91
2023-05-10T11:27:07.727Z,101223.34
2023-05-10T11:29:34.210Z,101222.53
2023-05-10T11:32:00.971Z,101223.34
2023-05-10T11:34:34.270Z,101233.22
2023-05-10T11:37:00.774Z,101224.94
2023-05-10T11:39:28.878Z,101229.56
2023-05-10T11:41:55.653Z,101232.34
2023-05-10T11:44:22.060Z,101242.66
2023-05-10T11:46:48.620Z,101235.41
2023-05-10T11:49:15.360Z,101232.38
2023-05-10T11:51:43.709Z,101236.81
2023-05-10T11:54:11.655Z,101239.25
2023-05-10T11:56:41.723Z,101243.72
2023-05-10T11:59:09.054Z,101237.66
2023-05-10T12:01:36.182Z,101249.19
2023-05-10T12:04:03.084Z,101235.81
2023-05-10T12:06:32.190Z,101250.72
2023-05-10T12:08:59.293Z,101247.13
2023-05-10T12:11:27.074Z,101255.03
2023-05-10T12:13:54.091Z,101248.19
2023-05-10T12:16:25.725Z,101246.16
2023-05-10T12:18:53.396Z,101245.59
2023-05-10T12:21:21.164Z,101245.41
2023-05-10T12:23:49.240Z,101243.41
2023-05-10T12:26:15.909Z,101246.63
2023-05-10T12:28:42.433Z,101246.22
2023-05-10T12:31:09.144Z,101236.22
2023-05-10T12:33:43.790Z,101241.81
2023-05-10T12:36:14.728Z,101233.19
2023-05-10T12:38:48.763Z,101241.88
2023-05-10T12:41:19.514Z,101233.19
2023-05-10T12:43:49.029Z,101239.69
2023-05-10T12:46:17.040Z,101242.63
2023-05-10T12:48:44.682Z,101241.19
2023-05-10T12:51:12.768Z,101246.03
2023-05-10T12:53:45.096Z,101261.22
2023-05-10T12:56:12.612Z,101257.28
2023-05-10T12:58:39.334Z,101265.91
2023-05-10T13:01:06.172Z,101266.16
2023-05-10T13:03:33.062Z,101267.81
2023-05-10T13:05:59.697Z,101263.06
2023-05-10T13:08:26.385Z,101275.25
2023-05-10T13:10:52.992Z,101270.97
2023-05-10T13:13:19.391Z,101271.44
2023-05-10T13:15:45.931Z,101278.09
2023-05-10T13:18:12.478Z,101279.75
2023-05-10T13:20:39.187Z,101277.72
2023-05-10T13:23:05.698Z,101293.97
2023-05-10T13:25:32.176Z,101290.06
2023-05-10T13:27:58.603Z,101294.56
2023-05-10T13:30:25.025Z,101299.09
2023-05-10T13:32:51.770Z,101294.16
2023-05-10T13:35:18.229Z,101304.28
2023-05-10T13:37:44.754Z,101305.22
2023-05-10T13:40:11.603Z,101302.47
2023-05-10T13:42:38.441Z,101303.22
2023-05-10T13:45:05.407Z,101313.28
2023-05-10T13:47:31.989Z,101296.28
2023-05-10T13:49:58.690Z,101306.94
2023-05-10T13:52:25.162Z,101298.53
2023-05-10T13:54:53.201Z,101310.97
2023-05-10T13:57:19.696Z,101297.78
2023-05-10T13:59:46.155Z,101278.50
2023-05-10T14:02:14.130Z,101308.09
2023-05-10T14:04:40.672Z,101299.91
2023-05-10T14:07:07.172Z,101300.22
2023-05-10T14:09:33.586Z,101303.16
2023-05-10T14:12:00.026Z,101301.53
2023-05-10T14:14:26.801Z,101303.97
2023-05-10T14:16:53.200Z,101306.06
2023-05-10T14:19:20.049Z,101304.09
2023-05-10T14:21:46.653Z,101297.47
2023-05-10T14:24:13.076Z,101297.66
2023-05-10T14:26:39.705Z,101299.50
2023-05-10T14:29:06.097Z,101301.25
2023-05-10T14:31:32.817Z,101301.25
2023-05-10T14:34:00.057Z,101297.16
2023-05-10T14:36:26.708Z,101310.59
2023-05-10T14:38:53.223Z,101303.16
2023-05-10T14:41:19.689Z,101313.00
2023-05-10T14:43:46.853Z,101314.41
2023-05-10T14:46:13.522Z,101312.38
2023-05-10T14:48:39.959Z,101306.41
2023-05-10T14:51:06.408Z,101309.69
2023-05-10T14:53:33.465Z,101316.00
2023-05-10T14:56:02.083Z,101308.28
2023-05-10T14:58:28.840Z,101305.28
2023-05-10T15:00:55.365Z,101312.31
2023-05-10T15:03:22.388Z,101312.59
2023-05-10T15:05:49.234Z,101312.41
2023-05-10T15:08:15.739Z,101316.50
2023-05-10T15:10:42.513Z,101308.38
2023-05-10T15:13:08.913Z,101311.19
2023-05-10T15:15:35.337Z,101314.38
2023-05-10T15:18:01.807Z,101307.44
2023-05-10T15:20:28.291Z,101311.59
2023-05-10T15:22:54.848Z,101316.09
2023-05-10T15:25:21.405Z,101321.38
2023-05-10T15:27:47.804Z,101321.31
2023-05-10T15:30:14.492Z,101324.97
2023-05-10T15:32:41.457Z,101322.53
2023-05-10T15:35:11.308Z,101318.78
2023-05-10T15:37:38.860Z,101322.28
2023-05-10T15:40:05.979Z,101333.91
2023-05-10T15:42:32.794Z,101320.75
2023-05-10T15:44:59.557Z,101324.78
2023-05-10T15:47:26.802Z,101324.09
2023-05-10T15:49:53.386Z,101323.94
2023-05-10T15:52:21.516Z,101328.94
2023-05-10T15:54:47.984Z,101328.34
2023-05-10T15:57:14.426Z,101336.63
2023-05-10T15:59:40.894Z,101333.63
2023-05-10T16:02:08.715Z,101313.91
2023-05-10T16:04:35.266Z,101327.66
2023-05-10T16:07:01.733Z,101328.91
2023-05-10T16:09:28.398Z,101310.00
2023-05-10T16:11:56.726Z,101328.41
2023-05-10T16:14:24.578Z,101331.66
2023-05-10T16:16:51.570Z,101330.25
2023-05-10T16:19:18.486Z,101327.56
2023-05-10T16:21:45.270Z,101328.59
2023-05-10T16:24:11.711Z,101329.22
2023-05-10T16:26:40.984Z,101331.84
2023-05-10T16:29:08.595Z,101332.84
2023-05-10T16:31:35.486Z,101338.50
2023-05-10T16:34:04.695Z,101341.09
2023-05-10T16:36:31.532Z,101349.16
2023-05-10T16:38:58.816Z,101348.88
2023-05-10T16:41:25.819Z,101353.22
2023-05-10T16:43:52.459Z,101354.59
2023-05-10T16:46:19.168Z,101349.31
2023-05-10T16:48:46.020Z,101348.00
2023-05-10T16:51:12.494Z,101356.59
2023-05-10T16:53:38.935Z,101354.78
2023-05-10T16:56:05.675Z,101351.34
2023-05-10T16:58:32.245Z,101360.13
2023-05-10T17:00:58.780Z,101358.97
2023-05-10T17:03:25.342Z,101368.06
2023-05-10T17:05:51.832Z,101363.03
2023-05-10T17:08:18.258Z,101358.78
2023-05-10T17:10:44.737Z,101358.00
2023-05-10T17:13:11.384Z,101366.88
2023-05-10T17:15:38.750Z,101367.03
2023-05-10T17:18:06.947Z,101373.66
2023-05-10T17:20:34.258Z,101367.03
2023-05-10T17:23:02.628Z,101371.28
2023-05-10T17:25:29.224Z,101369.56
2023-05-10T17:27:55.657Z,101382.38
2023-05-10T17:30:26.346Z,101384.00
2023-05-10T17:32:54.143Z,101380.22
2023-05-10T17:35:21.487Z,101383.72
2023-05-10T17:37:48.128Z,101385.41
2023-05-10T17:40:14.664Z,101390.44
2023-05-10T17:42:41.765Z,101388.47
2023-05-10T17:45:08.813Z,101386.56
2023-05-10T17:47:35.464Z,101398.84
2023-05-10T17:50:01.996Z,101387.63
2023-05-10T17:52:31.346Z,101400.28
2023-05-10T17:54:59.831Z,101402.84
2023-05-10T17:57:26.303Z,101405.78
2023-05-10T17:59:52.901Z,101411.63
2023-05-10T18:02:19.329Z,101409.00
2023-05-10T18:04:46.048Z,101413.56
2023-05-10T18:07:12.594Z,101408.28
2023-05-10T18:09:39.022Z,101414.50
2023-05-10T18:12:06.101Z,101416.69
2023-05-10T18:14:40.446Z,101415.06
2023-05-10T18:17:08.211Z,101415.88
2023-05-10T18:19:34.776Z,101412.91
2023-05-10T18:22:01.207Z,101406.53
2023-05-10T18:24:38.212Z,101407.59
2023-05-10T18:27:05.864Z,101401.16
2023-05-10T18:29:32.603Z,101402.41
2023-05-10T18:31:59.096Z,101408.44
2023-05-10T18:34:25.640Z,101414.03
2023-05-10T18:36:52.475Z,101415.41
2023-05-10T18:39:19.130Z,101418.78
2023-05-10T18:41:45.821Z,101418.59
2023-05-10T18:44:12.320Z,101410.75
2023-05-10T18:46:39.047Z,101417.09
2023-05-10T18:49:06.444Z,101415.22
2023-05-10T18:51:32.974Z,101424.59
2023-05-10T18:53:59.445Z,101422.59
2023-05-10T18:56:25.959Z,101423.41
2023-05-10T18:58:52.682Z,101428.34
2023-05-10T19:01:19.253Z,101428.91
2023-05-10T19:03:45.822Z,101436.47
2023-05-10T19:06:12.227Z,101438.72
2023-05-10T19:08:38.699Z,101438.91
2023-05-10T19:11:05.456Z,101438.91
2023-05-10T19:13:31.896Z,101442.69
2023-05-10T19:16:16.585Z,101441.59
2023-05-10T19:18:45.866Z,101436.28
2023-05-10T19:21:12.679Z,101444.75
2023-05-10T19:23:40.166Z,101443.56
2023-05-10T19:26:06.711Z,101443.69
2023-05-10T19:28:34.218Z,101454.22
2023-05-10T19:31:01.826Z,101456.66
2023-05-10T19:33:28.450Z,101458.63
2023-05-10T19:35:55.124Z,101456.38
2023-05-10T19:38:22.415Z,101463.84
2023-05-10T19:40:50.193Z,101459.69
2023-05-10T19:43:17.147Z,101452.28
2023-05-10T19:45:43.700Z,101465.81
2023-05-10T19:48:11.081Z,101466.16
2023-05-10T19:50:38.516Z,101472.38
2023-05-10T19:53:05.191Z,101475.97
2023-05-10T19:55:32.267Z,101475.81
2023-05-10T19:58:00.702Z,101479.41
2023-05-10T20:00:27.657Z,101480.56
2023-05-10T20:02:54.401Z,101479.28
2023-05-10T20:05:21.474Z,101482.91
2023-05-10T20:07:48.006Z,101483.88
2023-05-10T20:10:15.385Z,101478.34
2023-05-10T20:12:41.867Z,101472.88
2023-05-10T20:15:08.547Z,101467.19
2023-05-10T20:17:35.702Z,101464.91
2023-05-10T20:20:02.220Z,101460.19
2023-05-10T20:22:28.622Z,101469.22
2023-05-10T20:24:56.248Z,101475.88
2023-05-10T20:27:23.355Z,101474.25
2023-05-10T20:29:49.802Z,101475.59
2023-05-10T20:32:16.306Z,101485.84
2023-05-10T20:34:42.796Z,101474.94
2023-05-10T20:37:09.390Z,101470.59
2023-05-10T20:39:35.789Z,101476.19
2023-05-10T20:42:02.355Z,101484.97
2023-05-10T20:44:28.867Z,101481.75
2023-05-10T20:46:55.372Z,101484.97
2023-05-10T20:49:21.815Z,101482.22
2023-05-10T20:51:48.327Z,101485.78
2023-05-10T20:54:14.805Z,101484.47
2023-05-10T20:56:41.276Z,101498.16
2023-05-10T20:59:07.722Z,101490.59
2023-05-10T21:01:34.119Z,101487.03
2023-05-10T21:04:00.734Z,101485.38
2023-05-10T21:06:27.297Z,101488.81
2023-05-10T21:08:53.720Z,101486.22
2023-05-10T21:11:20.795Z,101486.69
2023-05-10T21:13:47.482Z,101489.63
2023-05-10T21:16:13.979Z,101483.25
2023-05-10T21:18:40.475Z,101484.72
2023-05-10T21:21:06.964Z,101483.19
2023-05-10T21:23:34.693Z,101485.34
2023-05-10T21:26:03.139Z,101484.53
2023-05-10T21:28:29.647Z,101487.78
2023-05-10T21:30:56.756Z,101494.16
2023-05-10T21:33:23.789Z,101486.84
2023-05-10T21:35:50.549Z,101491.06
2023-05-10T21:38:17.083Z,101473.19
2023-05-10T21:40:43.549Z,101481.34
2023-05-10T21:43:11.144Z,101477.44
2023-05-10T21:45:37.703Z,101483.47
2023-05-10T21:48:04.196Z,101477.09
2023-05-10T21:50:30.834Z,101481.50
2023-05-10T21:52:57.695Z,101479.59
2023-05-10T21:55:24.247Z,101464.31
2023-05-10T21:57:51.139Z,101486.50
2023-05-10T22:00:19.318Z,101477.69
2023-05-10T22:02:46.734Z,101480.47
2023-05-10T22:05:13.519Z,101478.41
2023-05-10T22:07:39.966Z,101481.50
2023-05-10T22:10:08.129Z,101484.34
2023-05-10T22:12:34.618Z,101492.97
2023-05-10T22:15:10.313Z,101496.91
2023-05-10T22:17:38.576Z,101492.50
2023-05-10T22:20:07.188Z,101499.38
2023-05-10T22:22:33.606Z,101491.72
2023-05-10T22:25:00.038Z,101500.53
2023-05-10T22:27:26.572Z,101500.88
2023-05-10T22:29:53.117Z,101496.63
2023-05-10T22:32:19.749Z,101498.75
2023-05-10T22:34:46.240Z,101496.31
2023-05-10T22:37:14.771Z,101502.19
2023-05-10T22:39:41.348Z,101491.56
2023-05-10T22:42:08.107Z,101496.13
2023-05-10T22:44:34.598Z,101497.44
2023-05-10T22:47:01.261Z,101493.69
2023-05-10T22:49:27.718Z,101491.88
2023-05-10T22:51:54.204Z,101483.28
2023-05-10T22:54:20.757Z,101494.31
2023-05-10T22:56:47.328Z,101501.19
2023-05-10T22:59:13.754Z,101501.00
2023-05-10T23:01:40.811Z,101503.25
2023-05-10T23:04:07.527Z,101496.59
2023-05-10T23:06:34.182Z,101506.19
2023-05-10T23:09:00.649Z,101511.88
2023-05-10T23:11:27.041Z,101504.84
2023-05-10T23:13:53.482Z,101512.50
2023-05-10T23:16:19.922Z,101511.91
2023-05-10T23:18:46.427Z,101510.31
2023-05-10T23:21:12.922Z,101516.72
2023-05-10T23:23:39.408Z,101516.56
2023-05-10T23:26:06.072Z,101509.72
2023-05-10T23:28:32.486Z,101505.34
2023-05-10T23:30:59.071Z,101508.59
2023-05-10T23:33:26.588Z,101515.56
2023-05-10T23:35:54.258Z,101515.09
2023-05-10T23:38:21.280Z,101498.97
2023-05-10T23:40:51.550Z,101519.19
2023-05-10T23:43:19.712Z,101518.88
2023-05-10T23:45:54.044Z,101521.00
2023-05-10T23:48:20.803Z,101518.06
2023-05-10T23:50:47.266Z,101515.09
2023-05-10T23:53:13.741Z,101515.94
2023-05-10T23:55:40.163Z,101500.78
2023-05-10T23:58:07.660Z,101523.56
